createdAt,value
2018-07-31T00:01:02.841Z,6.90
2018-07-31T00:03:32.316Z,7.03
2018-07-31T00:06:01.691Z,7.43
2018-07-31T00:08:31.125Z,7.00
2018-07-31T00:11:00.659Z,7.60
2018-07-31T00:13:30.071Z,7.47
2018-07-31T00:15:59.555Z,7.40
2018-07-31T00:18:29.309Z,7.80
2018-07-31T00:20:58.786Z,8.65
2018-07-31T00:23:28.213Z,8.60
2018-07-31T00:25:57.657Z,8.45
2018-07-31T00:28:27.200Z,8.10
2018-07-31T00:30:56.569Z,7.20
2018-07-31T00:33:25.873Z,6.80
2018-07-31T00:35:55.519Z,7.70
2018-07-31T00:38:25.001Z,7.05
2018-07-31T00:40:54.433Z,6.03
2018-07-31T00:43:23.816Z,6.57
2018-07-31T00:45:53.276Z,7.27
2018-07-31T00:48:22.933Z,7.17
2018-07-31T00:50:52.313Z,7.17
2018-07-31T00:53:21.831Z,6.93
2018-07-31T00:55:51.294Z,7.17
2018-07-31T00:58:20.761Z,6.70
2018-07-31T01:00:50.139Z,7.37
2018-07-31T01:03:19.543Z,8.73
2018-07-31T01:05:48.812Z,7.70
2018-07-31T01:08:18.013Z,7.77
2018-07-31T01:10:47.267Z,8.10
2018-07-31T01:13:16.538Z,7.77
2018-07-31T01:15:45.816Z,9.30
2018-07-31T01:18:15.276Z,8.40
2018-07-31T01:20:47.276Z,9.40
2018-07-31T01:23:17.174Z,8.93
2018-07-31T01:25:46.578Z,9.40
2018-07-31T01:28:16.066Z,8.67
2018-07-31T01:30:45.384Z,8.63
2018-07-31T01:33:14.923Z,8.93
2018-07-31T01:35:44.351Z,8.20
2018-07-31T01:38:13.835Z,8.37
2018-07-31T01:40:43.386Z,7.90
2018-07-31T01:43:12.630Z,7.80
2018-07-31T01:45:42.186Z,9.20
2018-07-31T01:48:11.694Z,9.40
2018-07-31T01:50:41.184Z,11.55
2018-07-31T01:53:10.708Z,13.60
2018-07-31T01:55:40.128Z,13.33
2018-07-31T01:58:09.437Z,13.57
2018-07-31T02:00:38.960Z,13.40
2018-07-31T02:03:08.400Z,13.70
2018-07-31T02:05:37.801Z,12.80
2018-07-31T02:08:07.293Z,12.47
2018-07-31T02:10:36.663Z,12.40
2018-07-31T02:13:06.434Z,13.53
2018-07-31T02:15:35.813Z,13.70
2018-07-31T02:18:05.492Z,13.90
2018-07-31T02:20:34.903Z,13.40
2018-07-31T02:23:04.267Z,14.63
2018-07-31T02:25:33.659Z,14.40
2018-07-31T02:28:02.966Z,15.27
2018-07-31T02:30:32.445Z,14.47
2018-07-31T02:33:01.893Z,12.73
2018-07-31T02:35:31.201Z,12.87
2018-07-31T02:38:00.711Z,12.43
2018-07-31T02:40:30.199Z,11.67
2018-07-31T02:42:59.744Z,10.87
2018-07-31T02:45:29.193Z,11.90
2018-07-31T02:47:58.719Z,12.00
2018-07-31T02:50:28.390Z,11.90
2018-07-31T02:52:58.316Z,11.00
2018-07-31T02:55:27.809Z,11.90
2018-07-31T02:57:57.358Z,11.43
2018-07-31T03:00:26.725Z,12.83
2018-07-31T03:02:56.219Z,11.20
2018-07-31T03:05:25.537Z,11.17
2018-07-31T03:07:55.019Z,11.47
2018-07-31T03:10:24.455Z,11.55
2018-07-31T03:12:53.825Z,10.00
2018-07-31T03:15:23.312Z,10.03
2018-07-31T03:17:52.947Z,10.20
2018-07-31T03:20:22.562Z,11.37
2018-07-31T03:22:52.114Z,11.60
2018-07-31T03:25:21.712Z,11.70
2018-07-31T03:27:51.132Z,10.90
2018-07-31T03:30:20.693Z,11.60
2018-07-31T03:32:50.592Z,12.07
2018-07-31T03:35:20.142Z,11.90
2018-07-31T03:37:49.578Z,12.50
2018-07-31T03:40:19.352Z,11.77
2018-07-31T03:42:49.060Z,10.70
2018-07-31T03:45:18.821Z,10.53
2018-07-31T03:47:48.292Z,10.35
2018-07-31T03:50:17.962Z,9.47
2018-07-31T03:52:47.803Z,10.90
2018-07-31T03:55:17.351Z,10.33
2018-07-31T03:57:46.930Z,10.20
2018-07-31T04:00:17.500Z,10.07
2018-07-31T04:02:47.168Z,9.85
2018-07-31T04:05:17.307Z,10.23
2018-07-31T04:07:46.929Z,11.07
2018-07-31T04:10:16.971Z,10.23
2018-07-31T04:12:46.677Z,10.33
2018-07-31T04:15:16.460Z,11.33
2018-07-31T04:17:50.676Z,11.20
2018-07-31T04:20:20.529Z,11.27
2018-07-31T04:22:50.901Z,10.63
2018-07-31T04:25:20.401Z,11.60
2018-07-31T04:27:49.875Z,12.45
2018-07-31T04:30:19.237Z,11.90
2018-07-31T04:32:48.753Z,15.07
2018-07-31T04:35:18.327Z,15.53
2018-07-31T04:37:47.766Z,13.70
2018-07-31T04:40:19.170Z,13.83
2018-07-31T04:42:48.608Z,13.77
2018-07-31T04:45:18.297Z,12.97
2018-07-31T04:47:47.788Z,16.13
2018-07-31T04:50:17.194Z,16.37
2018-07-31T04:52:46.772Z,17.40
2018-07-31T04:55:16.225Z,16.67
2018-07-31T04:57:45.960Z,18.70
2018-07-31T05:01:17.983Z,23.47
2018-07-31T05:03:47.628Z,24.90
2018-07-31T05:06:17.066Z,32.40
2018-07-31T05:08:46.756Z,44.90
2018-07-31T05:11:16.251Z,49.30
2018-07-31T05:13:45.716Z,45.53
2018-07-31T05:16:15.395Z,40.40
2018-07-31T05:18:44.963Z,38.17
2018-07-31T05:21:14.677Z,31.83
2018-07-31T05:23:44.461Z,24.43
2018-07-31T05:26:13.900Z,19.63
2018-07-31T05:28:43.464Z,19.15
2018-07-31T05:31:13.151Z,16.53
2018-07-31T05:33:42.944Z,15.83
2018-07-31T05:36:12.577Z,13.30
2018-07-31T05:38:42.176Z,12.70
2018-07-31T05:41:11.812Z,11.47
2018-07-31T05:43:41.376Z,11.50
2018-07-31T05:46:10.850Z,10.87
2018-07-31T05:48:40.322Z,10.43
2018-07-31T05:51:10.098Z,9.63
2018-07-31T05:53:39.868Z,9.57
2018-07-31T05:56:09.416Z,9.73
2018-07-31T05:58:38.928Z,10.00
2018-07-31T06:01:08.430Z,9.47
2018-07-31T06:03:42.689Z,10.00
2018-07-31T06:06:12.527Z,9.43
2018-07-31T06:08:42.061Z,9.70
2018-07-31T06:11:11.533Z,9.37
2018-07-31T06:13:41.111Z,9.80
2018-07-31T06:16:10.731Z,9.97
2018-07-31T06:18:40.333Z,10.27
2018-07-31T06:21:10.058Z,10.60
2018-07-31T06:23:39.639Z,9.93
2018-07-31T06:26:09.265Z,10.83
2018-07-31T06:28:39.003Z,10.70
2018-07-31T06:31:08.817Z,11.93
2018-07-31T06:33:38.381Z,11.67
2018-07-31T06:36:07.847Z,11.70
2018-07-31T06:38:37.336Z,11.67
2018-07-31T06:41:07.002Z,10.43
2018-07-31T06:43:36.578Z,11.60
2018-07-31T06:46:06.183Z,11.53
2018-07-31T06:48:35.725Z,11.80
2018-07-31T06:51:05.167Z,11.97
2018-07-31T06:53:34.516Z,11.33
2018-07-31T06:56:04.037Z,11.30
2018-07-31T06:58:33.907Z,11.30
2018-07-31T07:01:03.719Z,12.10
2018-07-31T07:03:33.140Z,9.60
2018-07-31T07:06:02.593Z,10.50
2018-07-31T07:08:32.148Z,10.03
2018-07-31T07:11:01.724Z,10.27
2018-07-31T07:13:31.206Z,9.47
2018-07-31T07:16:00.755Z,10.53
2018-07-31T07:18:30.414Z,9.83
2018-07-31T07:20:59.933Z,9.03
2018-07-31T07:23:29.493Z,8.80
2018-07-31T07:25:59.016Z,8.77
2018-07-31T07:28:28.594Z,8.03
2018-07-31T07:30:58.216Z,8.50
2018-07-31T07:33:30.035Z,6.93
2018-07-31T07:35:59.548Z,7.00
2018-07-31T07:38:29.271Z,6.90
2018-07-31T07:40:58.918Z,6.97
2018-07-31T07:43:28.376Z,7.17
2018-07-31T07:45:58.058Z,7.03
2018-07-31T07:48:27.699Z,6.63
2018-07-31T07:50:57.417Z,7.40
2018-07-31T07:53:26.997Z,7.07
2018-07-31T07:55:56.520Z,7.27
2018-07-31T07:58:25.987Z,6.40
2018-07-31T08:00:55.584Z,5.77
2018-07-31T08:03:24.950Z,5.23
2018-07-31T08:05:54.661Z,5.40
2018-07-31T08:08:24.141Z,4.80
2018-07-31T08:10:53.419Z,4.73
2018-07-31T08:13:22.964Z,4.13
2018-07-31T08:15:52.691Z,3.20
2018-07-31T08:18:22.271Z,3.30
2018-07-31T08:20:52.010Z,3.13
2018-07-31T08:23:21.887Z,3.07
2018-07-31T08:25:51.523Z,2.97
2018-07-31T08:28:20.957Z,2.37
2018-07-31T08:30:50.487Z,2.30
2018-07-31T08:33:20.057Z,2.87
2018-07-31T08:35:49.613Z,2.83
2018-07-31T08:38:19.141Z,2.80
2018-07-31T08:40:48.610Z,2.50
2018-07-31T08:43:18.165Z,2.53
2018-07-31T08:45:48.271Z,1.80
2018-07-31T08:48:17.885Z,2.00
2018-07-31T08:50:47.566Z,2.20
2018-07-31T08:53:17.170Z,2.00
2018-07-31T08:55:46.854Z,2.10
2018-07-31T08:58:16.486Z,2.00
2018-07-31T09:00:46.259Z,1.90
2018-07-31T09:03:16.071Z,2.10
2018-07-31T09:05:45.640Z,2.20
2018-07-31T09:08:15.320Z,2.13
2018-07-31T09:10:44.840Z,1.77
2018-07-31T09:13:14.350Z,1.80
2018-07-31T09:15:43.952Z,2.20
2018-07-31T09:18:13.512Z,2.00
2018-07-31T09:20:43.303Z,2.23
2018-07-31T09:23:12.640Z,1.97
2018-07-31T09:25:47.795Z,2.37
2018-07-31T09:28:18.454Z,2.37
2018-07-31T09:30:53.347Z,1.70
2018-07-31T09:33:22.852Z,2.37
2018-07-31T09:35:52.448Z,2.43
2018-07-31T09:38:22.383Z,2.10
2018-07-31T09:40:51.851Z,2.30
2018-07-31T09:43:21.727Z,2.07
2018-07-31T09:45:51.181Z,1.80
2018-07-31T09:48:20.631Z,1.80
2018-07-31T09:50:50.248Z,1.63
2018-07-31T09:53:19.942Z,2.10
2018-07-31T09:55:49.470Z,2.20
2018-07-31T09:58:18.958Z,2.07
2018-07-31T10:00:53.684Z,2.20
2018-07-31T10:03:23.403Z,2.23
2018-07-31T10:05:53.157Z,2.17
2018-07-31T10:08:23.593Z,2.23
2018-07-31T10:10:55.213Z,2.53
2018-07-31T10:13:24.778Z,2.67
2018-07-31T10:15:54.319Z,2.50
2018-07-31T10:18:27.929Z,2.30
2018-07-31T10:21:05.336Z,2.70
2018-07-31T10:23:45.507Z,2.10
2018-07-31T10:26:23.902Z,2.20
2018-07-31T10:29:02.094Z,2.27
2018-07-31T10:31:39.075Z,2.30
2018-07-31T10:34:17.921Z,2.23
2018-07-31T10:36:57.566Z,2.10
2018-07-31T10:39:35.645Z,2.83
2018-07-31T10:42:13.957Z,2.40
2018-07-31T10:44:51.814Z,3.00
2018-07-31T10:47:21.685Z,3.20
2018-07-31T10:49:51.252Z,2.70
2018-07-31T10:52:20.760Z,2.83
2018-07-31T10:54:50.761Z,3.40
2018-07-31T10:57:20.323Z,3.07
2018-07-31T10:59:49.888Z,2.70
2018-07-31T11:02:19.386Z,2.40
2018-07-31T11:04:48.765Z,2.53
2018-07-31T11:07:18.416Z,2.30
2018-07-31T11:09:47.898Z,2.27
2018-07-31T11:12:17.596Z,2.00
2018-07-31T11:14:47.027Z,2.60
2018-07-31T11:17:16.472Z,2.13
2018-07-31T11:19:46.149Z,2.60
2018-07-31T11:22:15.644Z,2.60
2018-07-31T11:24:45.299Z,4.57
2018-07-31T11:27:14.820Z,2.70
2018-07-31T11:29:44.264Z,2.03
2018-07-31T11:32:13.970Z,2.93
2018-07-31T11:36:12.613Z,2.37
2018-07-31T11:38:42.018Z,2.50
2018-07-31T11:41:11.529Z,2.20
2018-07-31T11:43:41.054Z,2.30
2018-07-31T11:46:10.452Z,2.10
2018-07-31T11:48:39.993Z,2.17
2018-07-31T11:51:09.384Z,2.30
2018-07-31T11:53:39.097Z,2.50
2018-07-31T11:56:08.421Z,1.97
2018-07-31T11:58:37.833Z,2.10
2018-07-31T12:01:07.229Z,1.90
2018-07-31T12:03:36.837Z,2.05
2018-07-31T12:06:06.145Z,1.90
2018-07-31T12:08:35.523Z,2.20
2018-07-31T12:11:04.985Z,2.40
2018-07-31T12:13:34.514Z,2.30
2018-07-31T12:16:04.122Z,2.40
2018-07-31T12:18:33.547Z,2.03
2018-07-31T12:21:02.960Z,2.17
2018-07-31T12:23:32.348Z,2.50
2018-07-31T12:26:01.821Z,2.17
2018-07-31T12:28:31.289Z,2.30
2018-07-31T12:31:00.770Z,2.23
2018-07-31T12:33:30.139Z,2.33
2018-07-31T12:35:59.775Z,1.92
2018-07-31T12:38:29.476Z,2.40
2018-07-31T12:40:58.936Z,2.02
2018-07-31T12:43:28.345Z,2.15
2018-07-31T12:45:57.907Z,2.12
2018-07-31T12:48:27.288Z,2.13
2018-07-31T12:50:57.078Z,2.15
2018-07-31T12:53:26.597Z,2.10
2018-07-31T12:55:56.011Z,1.90
2018-07-31T12:58:25.490Z,1.98
2018-07-31T13:00:54.854Z,2.20
2018-07-31T13:03:24.224Z,2.17
2018-07-31T13:05:53.663Z,2.15
2018-07-31T13:08:23.286Z,2.40
2018-07-31T13:10:52.691Z,2.70
2018-07-31T13:13:22.162Z,2.10
2018-07-31T13:15:51.439Z,1.98
2018-07-31T13:18:21.055Z,2.15
2018-07-31T13:20:50.524Z,2.20
2018-07-31T13:23:19.940Z,2.25
2018-07-31T13:25:49.318Z,2.77
2018-07-31T13:28:19.712Z,2.30
2018-07-31T13:30:49.035Z,2.00
2018-07-31T13:33:18.519Z,1.98
2018-07-31T13:35:48.156Z,1.80
2018-07-31T13:38:17.563Z,2.20
2018-07-31T13:40:46.824Z,2.15
2018-07-31T13:43:16.247Z,2.02
2018-07-31T13:45:45.746Z,2.00
2018-07-31T13:48:15.495Z,1.90
2018-07-31T13:50:44.847Z,2.60
2018-07-31T13:53:14.089Z,2.22
2018-07-31T13:55:43.417Z,2.00
2018-07-31T13:58:12.909Z,2.00
2018-07-31T14:00:42.393Z,1.60
2018-07-31T14:03:11.838Z,1.72
2018-07-31T14:05:41.122Z,2.12
2018-07-31T14:08:10.550Z,2.10
2018-07-31T14:10:39.967Z,1.90
2018-07-31T14:13:09.456Z,2.00
2018-07-31T14:15:38.885Z,2.58
2018-07-31T14:18:08.267Z,2.33
2018-07-31T14:20:37.833Z,2.00
2018-07-31T14:23:07.235Z,2.08
2018-07-31T14:25:36.627Z,2.35
2018-07-31T14:28:06.164Z,2.45
2018-07-31T14:30:35.841Z,1.98
2018-07-31T14:33:05.210Z,1.90
2018-07-31T14:35:34.819Z,2.00
2018-07-31T14:38:04.391Z,2.08
2018-07-31T14:40:34.741Z,1.95
2018-07-31T14:43:04.462Z,1.50
2018-07-31T14:45:34.560Z,1.70
2018-07-31T14:48:04.299Z,1.98
2018-07-31T14:50:34.170Z,1.82
2018-07-31T14:53:04.170Z,2.17
2018-07-31T14:55:33.830Z,1.70
2018-07-31T14:58:03.613Z,1.60
2018-07-31T15:00:33.311Z,1.98
2018-07-31T15:03:02.761Z,1.70
2018-07-31T15:05:32.629Z,2.02
2018-07-31T15:08:02.229Z,1.70
2018-07-31T15:10:31.893Z,1.70
2018-07-31T15:13:01.424Z,2.10
2018-07-31T15:15:30.931Z,2.00
2018-07-31T15:18:00.575Z,2.22
2018-07-31T15:20:30.380Z,1.90
2018-07-31T15:22:59.838Z,2.42
2018-07-31T15:25:29.301Z,2.15
2018-07-31T15:27:58.984Z,2.20
2018-07-31T15:30:28.466Z,2.25
2018-07-31T15:32:57.933Z,1.90
2018-07-31T15:35:27.500Z,2.17
2018-07-31T15:37:57.049Z,2.30
2018-07-31T15:40:26.352Z,2.27
2018-07-31T15:42:55.772Z,2.58
2018-07-31T15:45:25.164Z,2.08
2018-07-31T15:47:54.412Z,2.25
2018-07-31T15:50:23.706Z,2.22
2018-07-31T15:52:52.932Z,2.12
2018-07-31T15:55:22.206Z,2.70
2018-07-31T15:57:51.517Z,2.37
2018-07-31T16:00:20.804Z,2.25
2018-07-31T16:02:50.026Z,2.90
2018-07-31T16:11:18.940Z,2.60
2018-07-31T16:13:48.333Z,2.72
2018-07-31T16:16:17.719Z,2.87
2018-07-31T16:18:47.074Z,2.37
2018-07-31T16:21:16.553Z,2.52
2018-07-31T16:23:46.094Z,2.40
2018-07-31T16:26:15.507Z,2.45
2018-07-31T16:28:44.919Z,2.40
2018-07-31T16:31:14.277Z,2.22
2018-07-31T16:33:43.666Z,2.35
2018-07-31T16:36:13.225Z,2.33
2018-07-31T16:38:42.731Z,2.10
2018-07-31T16:41:12.201Z,2.72
2018-07-31T16:43:41.732Z,2.10
2018-07-31T16:46:11.470Z,2.20
2018-07-31T16:48:41.011Z,2.47
2018-07-31T16:51:10.561Z,1.90
2018-07-31T16:53:40.208Z,2.00
2018-07-31T16:56:09.767Z,2.23
2018-07-31T16:58:39.319Z,1.80
2018-07-31T17:01:08.953Z,1.93
2018-07-31T17:03:38.711Z,2.20
2018-07-31T17:06:08.788Z,2.30
2018-07-31T17:08:38.352Z,2.20
2018-07-31T17:11:07.872Z,2.60
2018-07-31T17:13:37.642Z,2.47
2018-07-31T17:16:07.189Z,2.63
2018-07-31T17:18:36.589Z,2.50
2018-07-31T17:21:06.080Z,2.67
2018-07-31T17:23:35.818Z,2.40
2018-07-31T17:26:05.367Z,2.63
2018-07-31T17:28:34.912Z,2.40
2018-07-31T17:31:04.362Z,2.23
2018-07-31T17:33:33.979Z,1.90
2018-07-31T17:36:03.660Z,2.33
2018-07-31T17:38:33.218Z,2.23
2018-07-31T17:41:02.785Z,2.27
2018-07-31T17:43:32.472Z,2.40
2018-07-31T17:46:01.985Z,2.30
2018-07-31T17:48:31.543Z,2.35
2018-07-31T17:51:01.108Z,2.47
2018-07-31T17:53:30.573Z,2.00
2018-07-31T17:56:00.140Z,2.40
2018-07-31T17:58:29.744Z,2.27
2018-07-31T18:00:59.948Z,2.60
2018-07-31T18:03:29.702Z,2.10
2018-07-31T18:05:59.158Z,2.33
2018-07-31T18:08:28.709Z,1.90
2018-07-31T18:10:58.125Z,2.20
2018-07-31T18:13:27.754Z,2.40
2018-07-31T18:15:57.523Z,2.60
2018-07-31T18:18:26.937Z,2.00
2018-07-31T18:20:56.325Z,2.30
2018-07-31T18:23:25.973Z,2.00
2018-07-31T18:25:55.494Z,2.27
2018-07-31T18:28:24.861Z,1.97
2018-07-31T18:30:54.409Z,2.30
2018-07-31T18:33:23.835Z,2.55
2018-07-31T18:35:55.438Z,2.20
2018-07-31T18:38:25.473Z,2.03
2018-07-31T18:40:55.268Z,2.10
2018-07-31T18:43:24.855Z,2.10
2018-07-31T18:45:54.315Z,2.53
2018-07-31T18:48:24.009Z,2.20
2018-07-31T18:50:53.812Z,2.47
2018-07-31T18:53:23.387Z,2.40
2018-07-31T18:55:53.363Z,2.30
2018-07-31T18:58:23.625Z,2.53
2018-07-31T19:00:53.248Z,2.70
2018-07-31T19:03:22.751Z,2.67
2018-07-31T19:05:52.332Z,5.30
2018-07-31T19:08:21.799Z,3.37
2018-07-31T19:10:51.240Z,2.47
2018-07-31T19:13:20.820Z,2.97
2018-07-31T19:15:50.356Z,2.63
2018-07-31T19:18:20.062Z,2.70
2018-07-31T19:21:01.978Z,2.50
2018-07-31T19:23:36.853Z,2.80
2018-07-31T19:26:07.021Z,3.53
2018-07-31T19:28:36.663Z,2.43
2018-07-31T19:31:06.164Z,2.50
2018-07-31T19:33:35.772Z,3.17
2018-07-31T19:36:05.469Z,2.47
2018-07-31T19:38:35.050Z,2.60
2018-07-31T19:41:04.425Z,2.57
2018-07-31T19:43:34.007Z,3.07
2018-07-31T19:46:03.792Z,2.80
2018-07-31T19:48:33.362Z,2.93
2018-07-31T19:51:03.064Z,3.80
2018-07-31T19:53:32.577Z,4.10
2018-07-31T19:56:02.121Z,3.53
2018-07-31T19:58:31.666Z,4.30
2018-07-31T20:01:01.189Z,3.57
2018-07-31T20:03:30.618Z,4.73
2018-07-31T20:06:00.237Z,4.17
2018-07-31T20:08:29.722Z,3.80
2018-07-31T20:10:59.377Z,4.00
2018-07-31T20:13:28.854Z,3.93
2018-07-31T20:15:58.302Z,3.80
2018-07-31T20:18:27.886Z,4.00
2018-07-31T20:20:57.396Z,5.00
2018-07-31T20:23:26.821Z,4.12
2018-07-31T20:25:56.202Z,3.37
2018-07-31T20:28:25.750Z,4.60
2018-07-31T20:30:55.261Z,5.53
2018-07-31T20:33:24.655Z,4.63
2018-07-31T20:35:54.095Z,4.60
2018-07-31T20:38:23.645Z,4.30
2018-07-31T20:40:53.265Z,4.25
2018-07-31T20:43:23.032Z,4.00
2018-07-31T20:45:52.495Z,4.37
2018-07-31T20:48:22.277Z,4.67
2018-07-31T20:50:52.190Z,5.17
2018-07-31T20:53:21.718Z,4.30
2018-07-31T20:55:51.377Z,4.70
2018-07-31T20:58:20.905Z,4.40
2018-07-31T21:00:50.423Z,4.90
2018-07-31T21:03:19.997Z,4.90
2018-07-31T21:05:49.695Z,5.30
2018-07-31T21:08:19.126Z,4.57
2018-07-31T21:10:48.675Z,5.07
2018-07-31T21:13:18.126Z,5.53
2018-07-31T21:15:47.566Z,5.20
2018-07-31T21:18:17.113Z,4.93
2018-07-31T21:20:46.654Z,4.63
2018-07-31T21:23:16.087Z,5.03
2018-07-31T21:25:45.630Z,4.90
2018-07-31T21:28:14.628Z,5.17
2018-07-31T21:30:43.985Z,4.43
2018-07-31T21:33:13.509Z,4.25
2018-07-31T21:35:42.932Z,4.93
2018-07-31T21:38:12.328Z,4.20
2018-07-31T21:40:41.852Z,4.77
2018-07-31T21:43:11.264Z,5.17
2018-07-31T21:45:41.001Z,4.37
2018-07-31T21:48:10.387Z,5.80
2018-07-31T21:50:39.845Z,5.07
2018-07-31T21:53:09.297Z,5.60
2018-07-31T21:55:38.762Z,6.10
2018-07-31T21:58:08.233Z,6.17
2018-07-31T22:00:43.069Z,5.90
2018-07-31T22:03:12.553Z,6.93
2018-07-31T22:05:42.014Z,6.37
2018-07-31T22:08:11.441Z,6.60
2018-07-31T22:10:40.871Z,6.10
2018-07-31T22:13:10.319Z,6.70
2018-07-31T22:15:39.691Z,6.50
2018-07-31T22:18:09.147Z,5.90
2018-07-31T22:20:38.707Z,6.05
2018-07-31T22:23:08.257Z,5.73
2018-07-31T22:25:37.889Z,6.50
2018-07-31T22:28:07.418Z,6.60
2018-07-31T22:30:36.892Z,6.80
2018-07-31T22:33:06.428Z,6.60
2018-07-31T22:35:35.991Z,6.77
2018-07-31T22:38:06.364Z,7.20
2018-07-31T22:40:35.780Z,7.27
2018-07-31T22:43:05.380Z,6.13
2018-07-31T22:45:34.901Z,6.77
2018-07-31T22:48:04.324Z,6.87
2018-07-31T22:50:33.782Z,6.67
2018-07-31T22:53:03.342Z,6.80
2018-07-31T22:55:32.754Z,6.83
2018-07-31T22:58:02.336Z,6.80
2018-07-31T23:00:31.757Z,6.20
2018-07-31T23:03:01.268Z,5.80
2018-07-31T23:05:30.564Z,5.80
2018-07-31T23:08:00.092Z,5.47
2018-07-31T23:10:29.519Z,5.10
2018-07-31T23:12:58.851Z,5.97
2018-07-31T23:15:28.190Z,5.40
2018-07-31T23:17:57.647Z,5.93
2018-07-31T23:20:27.007Z,5.80
2018-07-31T23:22:56.544Z,6.03
2018-07-31T23:25:26.119Z,6.27
2018-07-31T23:27:55.385Z,6.67
2018-07-31T23:30:24.799Z,7.00
2018-07-31T23:32:54.205Z,5.90
2018-07-31T23:35:23.736Z,6.43
2018-07-31T23:37:53.371Z,6.20
2018-07-31T23:40:22.871Z,7.60
2018-07-31T23:42:52.275Z,6.50
2018-07-31T23:45:22.541Z,6.45
2018-07-31T23:47:52.125Z,6.67
2018-07-31T23:50:21.586Z,6.10
2018-07-31T23:52:50.991Z,5.70
2018-07-31T23:55:20.372Z,6.13
2018-07-31T23:57:49.701Z,5.90
